Terminal Aerodrome Forecast
Issued by NWS

Home | Current Version | Previous Version | Graphics & Text | Print | Product List | Glossary On
Versions: 1 2 3 4 5 6 7 8 9 10 11 12 13 14 15 16 17 18 19 20 21 22 23 24 25
862
FTUS43 KPAH 300923 AAC
TAFCGI
TAF AMD
KCGI 300923Z 3009/0106 VRB04KT 4SM SHRA BR BKN080
      TEMPO 3009/3013 6SM TSRA OVC025CB
     FM301400 17016G26KT 5SM SHRA VCTS OVC030CB
     FM302200 19015KT P6SM -SHRA OVC045
     FM010400 21012G21KT P6SM SCT130=

USA.gov is the U.S. government's official web portal to all federal, state and local government web resources and services.